createdAt,value
2022-10-31T00:00:18.163Z,10.21
2022-10-31T00:03:10.670Z,10.26
2022-10-31T00:05:48.401Z,10.29
2022-10-31T00:08:21.651Z,10.31
2022-10-31T00:10:54.227Z,10.32
2022-10-31T00:13:26.938Z,10.35
2022-10-31T00:15:59.670Z,10.38
2022-10-31T00:18:32.355Z,10.37
2022-10-31T00:21:07.661Z,10.44
2022-10-31T00:23:40.498Z,10.44
2022-10-31T00:26:13.436Z,10.39
2022-10-31T00:28:46.450Z,10.36
2022-10-31T00:31:19.475Z,10.40
2022-10-31T00:33:52.415Z,10.29
2022-10-31T00:36:25.107Z,10.29
2022-10-31T00:38:57.744Z,10.24
2022-10-31T00:41:31.023Z,10.25
2022-10-31T00:44:03.695Z,10.24
2022-10-31T00:46:36.867Z,10.27
2022-10-31T00:49:09.163Z,10.18
2022-10-31T00:51:41.547Z,10.19
2022-10-31T00:54:15.839Z,10.14
2022-10-31T00:56:48.367Z,10.09
2022-10-31T00:59:20.946Z,9.99
2022-10-31T01:01:53.761Z,9.99
2022-10-31T01:04:28.539Z,9.94
2022-10-31T01:07:01.239Z,9.90
2022-10-31T01:09:33.802Z,9.86
2022-10-31T01:12:06.515Z,9.83
2022-10-31T01:14:39.040Z,9.79
2022-10-31T01:17:11.580Z,9.76
2022-10-31T01:19:44.229Z,9.72
2022-10-31T01:22:16.954Z,9.69
2022-10-31T01:24:49.818Z,9.64
2022-10-31T01:27:22.680Z,9.58
2022-10-31T01:29:55.646Z,9.54
2022-10-31T01:32:30.224Z,9.49
2022-10-31T01:35:04.258Z,9.41
2022-10-31T01:37:36.874Z,9.37
2022-10-31T01:40:09.885Z,9.30
2022-10-31T01:42:42.849Z,9.26
2022-10-31T01:45:17.960Z,9.24
2022-10-31T01:47:51.969Z,9.22
2022-10-31T01:50:44.055Z,9.12
2022-10-31T01:53:19.182Z,9.15
2022-10-31T01:55:55.677Z,9.13
2022-10-31T01:58:30.787Z,9.10
2022-10-31T02:01:07.724Z,9.08
2022-10-31T02:03:42.229Z,9.06
2022-10-31T02:06:30.464Z,9.03
2022-10-31T02:09:06.462Z,9.00
2022-10-31T02:11:40.237Z,8.96
2022-10-31T02:14:13.221Z,8.92
2022-10-31T02:16:45.939Z,8.91
2022-10-31T02:19:30.895Z,8.91
2022-10-31T02:22:25.523Z,8.91
2022-10-31T02:25:11.329Z,8.90
2022-10-31T02:31:18.266Z,8.87
2022-10-31T02:33:55.483Z,8.85
2022-10-31T02:37:05.044Z,8.83
2022-10-31T02:39:57.349Z,8.79
2022-10-31T02:43:03.749Z,8.78
2022-10-31T02:46:04.330Z,8.76
2022-10-31T02:48:41.763Z,8.73
2022-10-31T02:51:16.077Z,8.68
2022-10-31T02:53:48.749Z,8.63
2022-10-31T02:56:23.375Z,8.53
2022-10-31T02:59:03.546Z,8.59
2022-10-31T03:02:12.317Z,8.57
2022-10-31T03:04:59.050Z,8.55
2022-10-31T03:07:40.088Z,8.54
2022-10-31T03:10:30.317Z,8.56
2022-10-31T03:13:16.803Z,8.60
2022-10-31T03:15:54.469Z,8.65
2022-10-31T03:18:35.762Z,8.71
2022-10-31T03:21:30.422Z,8.78
2022-10-31T03:24:08.476Z,8.84
2022-10-31T03:26:45.421Z,8.88
2022-10-31T03:29:22.625Z,8.94
2022-10-31T03:32:26.202Z,8.98
2022-10-31T03:35:02.765Z,9.01
2022-10-31T03:37:38.135Z,9.04
2022-10-31T03:40:13.367Z,9.03
2022-10-31T03:42:53.744Z,9.13
2022-10-31T03:45:32.031Z,9.13
2022-10-31T03:48:04.975Z,9.27
2022-10-31T03:50:52.259Z,9.30
2022-10-31T03:53:35.397Z,9.46
2022-10-31T03:56:16.916Z,9.54
2022-10-31T03:59:03.413Z,9.59
2022-10-31T04:01:40.729Z,9.62
2022-10-31T04:04:13.631Z,9.65
2022-10-31T04:06:49.030Z,9.67
2022-10-31T04:09:23.618Z,9.69
2022-10-31T04:11:59.487Z,9.73
2022-10-31T04:14:43.079Z,9.79
2022-10-31T04:17:21.460Z,9.85
2022-10-31T04:19:53.805Z,9.91
2022-10-31T04:22:26.531Z,9.96
2022-10-31T04:24:59.390Z,10.00
2022-10-31T04:27:32.543Z,10.04
2022-10-31T04:30:05.071Z,10.02
2022-10-31T04:32:39.061Z,10.01
2022-10-31T04:35:11.883Z,9.99
2022-10-31T04:37:44.115Z,10.01
2022-10-31T04:40:17.027Z,9.99
2022-10-31T04:43:09.214Z,10.01
2022-10-31T04:45:41.575Z,10.18
2022-10-31T04:48:14.185Z,10.20
2022-10-31T04:50:47.672Z,10.23
2022-10-31T04:53:20.926Z,10.19
2022-10-31T04:56:15.238Z,10.23
2022-10-31T04:58:50.897Z,10.35
2022-10-31T05:01:23.633Z,10.35
2022-10-31T05:03:56.264Z,10.36
2022-10-31T05:06:29.405Z,10.31
2022-10-31T05:09:03.215Z,10.41
2022-10-31T05:11:36.573Z,10.43
2022-10-31T05:14:24.902Z,10.47
2022-10-31T05:17:27.946Z,10.50
2022-10-31T05:20:21.447Z,10.46
2022-10-31T05:23:23.460Z,10.42
2022-10-31T05:25:56.291Z,10.41
2022-10-31T05:28:29.075Z,10.36
2022-10-31T05:31:02.094Z,10.30
2022-10-31T05:33:34.539Z,10.26
2022-10-31T05:36:30.675Z,10.22
2022-10-31T05:39:06.004Z,10.29
2022-10-31T05:41:44.949Z,10.32
2022-10-31T05:44:30.373Z,10.33
2022-10-31T05:47:16.337Z,10.34
2022-10-31T05:50:10.887Z,10.38
2022-10-31T05:53:00.667Z,10.38
2022-10-31T05:55:38.375Z,10.38
2022-10-31T05:58:16.772Z,10.36
2022-10-31T06:00:59.700Z,10.29
2022-10-31T06:03:33.556Z,10.38
2022-10-31T06:06:10.142Z,10.41
2022-10-31T06:08:45.228Z,10.46
2022-10-31T06:11:21.784Z,10.49
2022-10-31T06:14:20.377Z,10.48
2022-10-31T06:17:02.228Z,10.48
2022-10-31T06:20:15.421Z,10.55
2022-10-31T06:23:00.213Z,10.54
2022-10-31T06:25:34.471Z,10.72
2022-10-31T06:28:08.158Z,10.79
2022-10-31T06:30:56.308Z,10.86
2022-10-31T06:33:30.900Z,11.02
2022-10-31T06:36:07.404Z,11.22
2022-10-31T06:38:41.095Z,11.32
2022-10-31T06:41:14.544Z,11.38
2022-10-31T06:43:55.212Z,11.50
2022-10-31T06:46:54.353Z,11.67
2022-10-31T06:49:46.918Z,11.82
2022-10-31T06:52:25.040Z,11.97
2022-10-31T06:54:59.171Z,12.12
2022-10-31T06:57:34.854Z,12.22
2022-10-31T07:00:08.810Z,12.38
2022-10-31T07:03:10.531Z,12.36
2022-10-31T07:05:45.152Z,12.42
2022-10-31T07:08:18.875Z,12.61
2022-10-31T07:10:56.857Z,12.79
2022-10-31T07:13:30.483Z,12.98
2022-10-31T07:16:15.465Z,13.12
2022-10-31T07:18:49.272Z,13.17
2022-10-31T07:21:23.152Z,13.13
2022-10-31T07:23:56.175Z,13.08
2022-10-31T07:26:50.725Z,13.03
2022-10-31T07:29:23.732Z,13.00
2022-10-31T07:31:56.801Z,12.98
2022-10-31T07:34:32.541Z,12.91
2022-10-31T07:37:31.824Z,12.92
2022-10-31T07:40:05.593Z,12.94
2022-10-31T07:42:46.887Z,12.97
2022-10-31T07:45:41.883Z,12.99
2022-10-31T07:48:40.411Z,13.06
2022-10-31T07:51:39.697Z,13.12
2022-10-31T07:54:34.560Z,13.16
2022-10-31T07:57:07.858Z,13.17
2022-10-31T07:59:41.380Z,13.29
2022-10-31T08:02:15.000Z,13.33
2022-10-31T08:04:57.237Z,13.40
2022-10-31T08:08:10.009Z,13.47
2022-10-31T08:10:45.420Z,13.57
2022-10-31T08:13:20.004Z,13.59
2022-10-31T08:15:55.176Z,13.69
2022-10-31T08:18:30.744Z,13.80
2022-10-31T08:21:03.774Z,13.94
2022-10-31T08:23:37.813Z,14.02
2022-10-31T08:26:11.395Z,14.00
2022-10-31T08:28:44.656Z,14.03
2022-10-31T08:31:20.616Z,14.17
2022-10-31T08:33:55.477Z,14.21
2022-10-31T08:36:59.914Z,14.19
2022-10-31T08:39:42.785Z,14.25
2022-10-31T08:42:15.936Z,14.29
2022-10-31T08:44:49.652Z,14.33
2022-10-31T08:47:24.668Z,14.38
2022-10-31T08:49:57.550Z,14.36
2022-10-31T08:52:51.502Z,14.44
2022-10-31T08:55:26.266Z,14.43
2022-10-31T08:58:15.167Z,14.56
2022-10-31T09:00:54.763Z,14.72
2022-10-31T09:03:30.294Z,14.76
2022-10-31T09:06:07.735Z,14.91
2022-10-31T09:08:41.714Z,15.00
2022-10-31T09:11:15.398Z,15.09
2022-10-31T09:14:13.537Z,15.19
2022-10-31T09:16:51.038Z,15.20
2022-10-31T09:19:28.441Z,15.25
2022-10-31T09:22:01.914Z,15.42
2022-10-31T09:24:35.694Z,15.46
2022-10-31T09:27:10.619Z,15.52
2022-10-31T09:29:47.590Z,15.62
2022-10-31T09:32:20.893Z,15.68
2022-10-31T09:34:54.059Z,15.70
2022-10-31T09:37:27.916Z,15.73
2022-10-31T09:40:01.597Z,15.78
2022-10-31T09:43:00.101Z,15.79
2022-10-31T09:45:49.393Z,15.88
2022-10-31T09:49:02.722Z,15.88
2022-10-31T09:52:07.021Z,16.06
2022-10-31T09:54:45.781Z,16.13
2022-10-31T09:57:23.368Z,16.21
2022-10-31T09:59:57.423Z,16.12
2022-10-31T10:02:48.487Z,16.20
2022-10-31T10:05:37.448Z,16.24
2022-10-31T10:08:21.431Z,16.30
2022-10-31T10:11:19.250Z,16.29
2022-10-31T10:14:35.873Z,16.35
2022-10-31T10:17:16.896Z,16.36
2022-10-31T10:20:15.027Z,16.47
2022-10-31T10:23:22.639Z,16.51
2022-10-31T10:26:17.543Z,16.51
2022-10-31T10:29:12.598Z,16.60
2022-10-31T10:31:48.436Z,16.64
2022-10-31T10:34:40.697Z,16.65
2022-10-31T10:37:23.685Z,16.65
2022-10-31T10:40:10.799Z,16.63
2022-10-31T10:43:03.341Z,16.66
2022-10-31T10:45:55.453Z,16.71
2022-10-31T10:48:58.714Z,16.78
2022-10-31T10:51:58.108Z,16.85
2022-10-31T10:54:47.980Z,16.89
2022-10-31T10:57:42.008Z,16.85
2022-10-31T11:00:29.226Z,16.87
2022-10-31T11:03:02.831Z,16.96
2022-10-31T11:06:01.873Z,16.90
2022-10-31T11:08:39.134Z,16.88
2022-10-31T11:11:20.910Z,16.95
2022-10-31T11:14:03.069Z,16.97
2022-10-31T11:16:41.727Z,16.96
2022-10-31T11:19:19.352Z,16.96
2022-10-31T11:21:54.206Z,16.99
2022-10-31T11:24:30.082Z,17.04
2022-10-31T11:27:27.188Z,17.03
2022-10-31T11:30:14.200Z,16.97
2022-10-31T11:32:54.595Z,17.01
2022-10-31T11:35:28.936Z,17.04
2022-10-31T11:38:03.810Z,17.00
2022-10-31T11:40:36.979Z,16.98
2022-10-31T11:43:20.217Z,16.96
2022-10-31T11:45:53.579Z,17.04
2022-10-31T11:48:28.304Z,17.03
2022-10-31T11:51:01.748Z,17.05
2022-10-31T11:53:37.427Z,16.99
2022-10-31T11:56:21.279Z,17.03
2022-10-31T11:59:08.323Z,17.08
2022-10-31T12:01:49.672Z,17.00
2022-10-31T12:04:28.544Z,17.06
2022-10-31T12:07:02.481Z,17.07
2022-10-31T12:09:39.987Z,17.11
2022-10-31T12:12:28.168Z,17.06
2022-10-31T12:15:27.136Z,16.96
2022-10-31T12:18:07.105Z,16.95
2022-10-31T12:20:58.165Z,17.07
2022-10-31T12:23:36.564Z,17.03
2022-10-31T12:26:29.975Z,16.98
2022-10-31T12:29:31.568Z,17.05
2022-10-31T12:32:38.958Z,17.03
2022-10-31T12:38:38.659Z,17.01
2022-10-31T12:41:26.468Z,16.98
2022-10-31T12:44:10.218Z,17.04
2022-10-31T12:46:43.437Z,17.02
2022-10-31T12:49:42.663Z,17.03
2022-10-31T12:52:47.382Z,17.06
2022-10-31T12:55:31.509Z,17.02
2022-10-31T12:58:17.793Z,16.98
2022-10-31T13:01:04.537Z,16.98
2022-10-31T13:04:12.675Z,17.02
2022-10-31T13:06:52.534Z,17.00
2022-10-31T13:09:36.683Z,16.97
2022-10-31T13:12:23.580Z,16.92
2022-10-31T13:15:17.335Z,16.89
2022-10-31T13:18:05.188Z,16.95
2022-10-31T13:20:59.757Z,16.91
2022-10-31T13:23:50.985Z,16.86
2022-10-31T13:26:50.770Z,16.80
2022-10-31T13:29:44.586Z,16.77
2022-10-31T13:32:18.641Z,16.71
2022-10-31T13:34:57.689Z,16.64
2022-10-31T13:37:44.643Z,16.62
2022-10-31T13:40:16.911Z,16.55
2022-10-31T13:43:05.548Z,16.49
2022-10-31T13:45:56.162Z,16.47
2022-10-31T13:48:44.085Z,16.42
2022-10-31T13:51:31.556Z,16.35
2022-10-31T13:54:29.608Z,16.31
2022-10-31T13:57:02.746Z,16.24
2022-10-31T13:59:40.326Z,16.18
2022-10-31T14:02:33.462Z,16.12
2022-10-31T14:05:29.257Z,16.08
2022-10-31T14:08:05.299Z,15.96
2022-10-31T14:10:41.961Z,15.89
2022-10-31T14:13:48.459Z,15.86
2022-10-31T14:16:32.467Z,15.85
2022-10-31T14:19:14.456Z,15.68
2022-10-31T14:21:49.238Z,15.61
2022-10-31T14:24:27.479Z,15.63
2022-10-31T14:27:25.790Z,15.54
2022-10-31T14:30:11.055Z,15.40
2022-10-31T14:32:45.482Z,15.38
2022-10-31T14:35:21.607Z,15.34
2022-10-31T14:38:07.885Z,15.27
2022-10-31T14:41:30.797Z,15.16
2022-10-31T14:44:46.696Z,15.01
2022-10-31T14:47:31.621Z,14.84
2022-10-31T14:51:04.481Z,14.75
2022-10-31T14:56:59.594Z,14.57
2022-10-31T14:59:39.948Z,14.47
2022-10-31T15:02:31.145Z,14.38
2022-10-31T15:08:47.713Z,14.12
2022-10-31T15:11:25.875Z,14.06
2022-10-31T15:14:01.315Z,14.02
2022-10-31T15:16:41.386Z,13.94
2022-10-31T15:19:23.833Z,13.86
2022-10-31T15:21:59.203Z,13.74
2022-10-31T15:24:42.283Z,13.70
2022-10-31T15:27:20.215Z,13.65
2022-10-31T15:29:58.625Z,13.55
2022-10-31T15:32:33.148Z,13.40
2022-10-31T15:35:15.518Z,13.33
2022-10-31T15:37:48.916Z,13.22
2022-10-31T15:40:25.387Z,13.05
2022-10-31T15:43:09.405Z,13.01
2022-10-31T15:45:46.806Z,12.88
2022-10-31T15:48:27.167Z,12.77
2022-10-31T15:51:01.745Z,12.65
2022-10-31T15:53:55.606Z,12.51
2022-10-31T15:56:32.959Z,12.46
2022-10-31T15:59:06.803Z,12.37
2022-10-31T16:01:40.368Z,12.27
2022-10-31T16:04:15.661Z,12.17
2022-10-31T16:07:01.220Z,12.07
2022-10-31T16:09:34.914Z,12.00
2022-10-31T16:12:08.100Z,11.95
2022-10-31T16:14:44.267Z,11.87
2022-10-31T16:17:23.782Z,11.77
2022-10-31T16:20:03.855Z,11.66
2022-10-31T16:22:42.509Z,11.53
2022-10-31T16:25:18.857Z,11.45
2022-10-31T16:27:55.367Z,11.38
2022-10-31T16:30:48.491Z,11.29
2022-10-31T16:33:32.349Z,11.18
2022-10-31T16:36:34.935Z,11.10
2022-10-31T16:39:11.311Z,11.04
2022-10-31T16:41:45.449Z,10.99
2022-10-31T16:44:31.147Z,10.90
2022-10-31T16:47:17.918Z,10.73
2022-10-31T16:49:52.559Z,10.65
2022-10-31T16:52:25.810Z,10.55
2022-10-31T16:54:58.531Z,10.46
2022-10-31T16:57:34.571Z,10.39
2022-10-31T17:00:08.068Z,10.37
2022-10-31T17:02:41.756Z,10.26
2022-10-31T17:05:16.678Z,10.21
2022-10-31T17:07:51.623Z,10.17
2022-10-31T17:10:25.619Z,10.00
2022-10-31T17:13:00.549Z,10.18
2022-10-31T17:15:41.980Z,10.15
2022-10-31T17:18:21.688Z,10.13
2022-10-31T17:21:02.350Z,10.04
2022-10-31T17:23:36.234Z,10.00
2022-10-31T17:26:11.244Z,10.01
2022-10-31T17:28:44.332Z,9.98
2022-10-31T17:31:25.016Z,9.96
2022-10-31T17:34:03.636Z,9.92
2022-10-31T17:36:37.758Z,9.89
2022-10-31T17:39:11.371Z,9.85
2022-10-31T17:41:44.376Z,9.80
2022-10-31T17:44:17.556Z,9.75
2022-10-31T17:46:50.786Z,9.71
2022-10-31T17:49:23.517Z,9.66
2022-10-31T17:51:56.919Z,9.62
2022-10-31T17:54:29.841Z,9.57
2022-10-31T17:57:02.519Z,9.53
2022-10-31T17:59:35.171Z,9.48
2022-10-31T18:02:09.705Z,9.45
2022-10-31T18:04:43.619Z,9.41
2022-10-31T18:07:30.774Z,9.36
2022-10-31T18:10:03.581Z,9.32
2022-10-31T18:12:39.011Z,9.28
2022-10-31T18:15:12.096Z,9.23
2022-10-31T18:17:44.933Z,9.18
2022-10-31T18:20:18.114Z,9.14
2022-10-31T18:22:53.888Z,9.09
2022-10-31T18:25:26.778Z,9.05
2022-10-31T18:28:00.440Z,9.02
2022-10-31T18:30:33.885Z,8.97
2022-10-31T18:33:07.122Z,8.92
2022-10-31T18:35:40.745Z,8.88
2022-10-31T18:38:13.699Z,8.83
2022-10-31T18:40:46.481Z,8.75
2022-10-31T18:43:19.767Z,8.75
2022-10-31T18:45:57.717Z,8.72
2022-10-31T18:48:33.009Z,8.69
2022-10-31T18:51:06.924Z,8.66
2022-10-31T18:53:39.690Z,8.59
2022-10-31T18:56:13.263Z,8.59
2022-10-31T18:58:46.240Z,8.56
2022-10-31T19:01:20.145Z,8.51
2022-10-31T19:03:59.499Z,8.44
2022-10-31T19:06:32.427Z,8.36
2022-10-31T19:09:09.800Z,8.32
2022-10-31T19:11:42.160Z,8.33
2022-10-31T19:14:15.725Z,8.30
2022-10-31T19:16:50.918Z,8.27
2022-10-31T19:19:25.354Z,8.25
2022-10-31T19:21:58.222Z,8.22
2022-10-31T19:24:30.818Z,8.12
2022-10-31T19:27:04.359Z,8.10
2022-10-31T19:29:36.732Z,8.02
2022-10-31T19:32:09.890Z,7.98
2022-10-31T19:34:42.768Z,7.95
2022-10-31T19:37:15.624Z,7.93
2022-10-31T19:39:48.641Z,7.82
2022-10-31T19:42:22.012Z,7.78
2022-10-31T19:44:54.950Z,7.83
2022-10-31T19:47:28.014Z,7.81
2022-10-31T19:50:00.995Z,7.77
2022-10-31T19:52:36.949Z,7.73
2022-10-31T19:55:09.928Z,7.69
2022-10-31T20:00:39.509Z,7.63
2022-10-31T20:03:13.880Z,7.56
2022-10-31T20:05:48.534Z,7.60
2022-10-31T20:08:23.349Z,7.58
2022-10-31T20:11:03.712Z,7.49
2022-10-31T20:13:36.381Z,7.40
2022-10-31T20:16:14.409Z,7.43
2022-10-31T20:18:47.348Z,7.45
2022-10-31T20:21:23.224Z,7.43
2022-10-31T20:24:00.314Z,7.41
2022-10-31T20:26:34.180Z,7.38
2022-10-31T20:29:07.420Z,7.35
2022-10-31T20:31:40.346Z,7.32
2022-10-31T20:34:12.941Z,7.29
2022-10-31T20:36:46.197Z,7.28
2022-10-31T20:39:19.029Z,7.25
2022-10-31T20:41:51.983Z,7.23
2022-10-31T20:44:25.154Z,7.19
2022-10-31T20:46:58.138Z,7.16
2022-10-31T20:49:31.891Z,7.14
2022-10-31T20:52:05.031Z,7.06
2022-10-31T20:54:37.884Z,7.00
2022-10-31T20:57:10.942Z,7.02
2022-10-31T20:59:43.745Z,7.02
2022-10-31T21:02:17.052Z,6.91
2022-10-31T21:04:50.208Z,6.96
2022-10-31T21:07:23.068Z,6.92
2022-10-31T21:09:56.039Z,6.90
2022-10-31T21:12:28.948Z,6.88
2022-10-31T21:15:01.867Z,6.85
2022-10-31T21:17:34.646Z,6.83
2022-10-31T21:20:10.323Z,6.80
2022-10-31T21:22:43.264Z,6.78
2022-10-31T21:25:16.054Z,6.76
2022-10-31T21:27:48.722Z,6.74
2022-10-31T21:30:21.646Z,6.72
2022-10-31T21:32:54.450Z,6.69
2022-10-31T21:35:27.316Z,6.67
2022-10-31T21:38:00.281Z,6.64
2022-10-31T21:40:33.992Z,6.61
2022-10-31T21:43:06.860Z,6.59
2022-10-31T21:45:39.824Z,6.56
2022-10-31T21:48:12.738Z,6.53
2022-10-31T21:50:45.540Z,6.50
2022-10-31T21:53:37.014Z,6.49
2022-10-31T21:56:10.161Z,6.47
2022-10-31T21:58:43.030Z,6.44
2022-10-31T22:01:16.090Z,6.41
2022-10-31T22:03:49.449Z,6.36
2022-10-31T22:06:23.123Z,6.32
2022-10-31T22:08:56.306Z,6.26
2022-10-31T22:11:29.551Z,6.22
2022-10-31T22:14:03.830Z,6.19
2022-10-31T22:16:37.909Z,6.16
2022-10-31T22:19:12.803Z,6.05
2022-10-31T22:21:49.282Z,5.96
2022-10-31T22:24:22.337Z,6.01
2022-10-31T22:26:55.448Z,6.06
2022-10-31T22:29:29.172Z,6.04
2022-10-31T22:32:03.316Z,5.99
2022-10-31T22:34:36.354Z,5.96
2022-10-31T22:37:08.969Z,5.95
2022-10-31T22:39:41.840Z,5.92
2022-10-31T22:42:14.536Z,5.90
2022-10-31T22:44:47.205Z,5.89
2022-10-31T22:47:19.931Z,5.85
2022-10-31T22:49:52.627Z,5.82
2022-10-31T22:52:25.382Z,5.79
2022-10-31T22:54:59.256Z,5.75
2022-10-31T22:57:32.242Z,5.74
2022-10-31T23:00:06.257Z,5.73
2022-10-31T23:02:38.888Z,5.71
2022-10-31T23:05:11.687Z,5.69
2022-10-31T23:07:44.861Z,5.66
2022-10-31T23:10:17.759Z,5.63
2022-10-31T23:13:09.081Z,5.60
2022-10-31T23:15:42.130Z,5.59
2022-10-31T23:18:36.724Z,5.56
2022-10-31T23:21:31.812Z,5.52
2022-10-31T23:24:04.678Z,5.49
2022-10-31T23:26:56.359Z,5.47
2022-10-31T23:29:29.238Z,5.44
2022-10-31T23:32:02.471Z,5.42
2022-10-31T23:34:35.409Z,5.39
2022-10-31T23:39:47.274Z,5.31
2022-10-31T23:42:21.066Z,5.28
2022-10-31T23:44:54.260Z,5.27
2022-10-31T23:47:27.334Z,5.28
2022-10-31T23:50:00.118Z,5.31
2022-10-31T23:52:33.052Z,5.33
2022-10-31T23:55:06.036Z,5.34
2022-10-31T23:57:39.096Z,5.30
